Time;durP1;ratioP1;P1;durP2;ratioP2;P2;SDS_P1;SDS_P2;PMS_P1;PMS_P2;Temp;Humidity;BMP_temperature;BMP_pressure;BME280_temperature;BME280_humidity;BME280_pressure;Samples;Min_cycle;Max_cycle;Signal;HPM_P1;HPM_P2
2022/01/21 00:49:15;;;;;;;17.33;4.53;;;;;;;-0.99;98.25;103419.69;4858559;24;20050;-80
2022/01/21 00:51:41;;;;;;;18.83;4.20;;;;;;;-1.04;98.39;103431.41;4789134;29;20036;-80
2022/01/21 00:54:09;;;;;;;17.52;3.80;;;;;;;-1.31;98.67;103382.47;4788688;30;20043;-80
2022/01/21 00:56:35;;;;;;;22.33;4.30;;;;;;;-1.12;98.94;103424.41;4790302;30;20031;-80
2022/01/21 00:59:00;;;;;;;18.98;4.78;;;;;;;-1.20;98.78;103427.56;4790099;30;20046;-80
2022/01/21 01:01:26;;;;;;;17.05;4.35;;;;;;;-1.19;99.18;103431.81;4773756;30;20043;-80
2022/01/21 01:03:52;;;;;;;21.38;4.38;;;;;;;-1.26;99.22;103429.97;4790442;30;20475;-80
2022/01/21 01:06:17;;;;;;;16.67;5.15;;;;;;;-1.29;99.50;103429.00;4789905;30;20491;-81
2022/01/21 01:08:42;;;;;;;20.02;4.97;;;;;;;-1.26;99.40;103441.78;4790138;30;20043;-81
2022/01/21 01:21:21;;;;;;;20.25;4.13;;;;;;;-1.36;100.00;103417.84;5338460;24;20018;-81
2022/01/21 01:24:03;;;;;;;19.42;3.80;;;;;;;-1.40;100.00;103392.34;4770714;30;20055;-80
2022/01/21 01:29:14;;;;;;;19.27;4.43;;;;;;;-1.17;100.00;103424.28;4772117;30;20047;-81
2022/01/21 01:31:40;;;;;;;17.65;3.75;;;;;;;-1.33;100.00;103384.97;4771775;30;20027;-81
2022/01/21 01:34:05;;;;;;;20.25;3.80;;;;;;;-1.25;100.00;103400.41;4771696;30;20585;-80
2022/01/21 01:36:31;;;;;;;20.50;3.88;;;;;;;-1.17;100.00;103409.06;4771358;30;20059;-81
2022/01/21 01:41:37;;;;;;;22.40;3.83;;;;;;;-1.31;100.00;103385.00;4771551;30;20130;-80
2022/01/21 01:49:36;;;;;;;22.50;4.07;;;;;;;-1.29;100.00;103401.09;4771633;30;20097;-80
2022/01/21 01:52:07;;;;;;;18.45;3.50;;;;;;;-1.38;100.00;103380.59;4771171;30;20373;-80
2022/01/21 01:54:35;;;;;;;18.55;3.15;;;;;;;-1.45;100.00;103377.91;4771468;30;20111;-81
2022/01/21 01:57:01;;;;;;;17.48;4.15;;;;;;;-1.24;100.00;103415.63;4771152;30;20111;-80
2022/01/21 01:59:27;;;;;;;15.55;3.40;;;;;;;-1.22;100.00;103413.16;4770956;30;20040;-81
2022/01/21 02:01:55;;;;;;;14.85;3.17;;;;;;;-1.38;100.00;103383.13;4771241;30;20036;-80
2022/01/21 02:04:23;;;;;;;9.95;3.17;;;;;;;-1.25;100.00;103410.53;4771062;30;20143;-80
2022/01/21 02:06:49;;;;;;;17.48;3.22;;;;;;;-1.36;100.00;103394.19;4771047;30;20394;-80
2022/01/21 02:09:14;;;;;;;14.60;2.90;;;;;;;-1.41;100.00;103388.97;4754679;30;20101;-81
2022/01/21 02:11:40;;;;;;;16.45;3.88;;;;;;;-1.29;100.00;103419.72;4771092;30;20027;-81
2022/01/21 02:14:09;;;;;;;16.50;3.75;;;;;;;-1.48;100.00;103389.59;4771234;30;20043;-80
2022/01/21 02:16:44;;;;;;;15.20;2.95;;;;;;;-1.45;100.00;103403.25;4771323;30;20063;-80
2022/01/21 02:21:54;;;;;;;17.50;3.15;;;;;;;-1.55;100.00;103383.53;4770946;30;20145;-80
2022/01/21 02:24:31;;;;;;;18.92;2.97;;;;;;;-1.35;100.00;103404.34;4771270;30;20106;-80
2022/01/21 02:26:59;;;;;;;15.18;2.92;;;;;;;-1.27;100.00;103415.56;4769412;30;20370;-80
2022/01/21 03:32:58;;;;;;;16.90;2.75;;;;;;;-2.84;100.00;103225.31;4752000;30;20113;-80
2022/01/21 03:45:53;;;;;;;12.50;2.25;;;;;;;-2.83;100.00;103235.47;4752202;30;20127;-80
2022/01/21 03:48:25;;;;;;;13.68;3.25;;;;;;;-2.02;100.00;103362.75;4735984;30;20084;-80
2022/01/21 03:50:59;;;;;;;14.15;3.10;;;;;;;-2.27;100.00;103313.88;4751819;30;20070;-80
2022/01/21 03:54:05;;;;;;;12.40;2.65;;;;;;;-1.49;100.00;103441.09;4750756;30;20042;-79
2022/01/21 03:56:52;;;;;;;12.85;2.47;;;;;;;-1.51;100.00;103448.66;4752048;30;20419;-80
2022/01/21 03:59:24;;;;;;;19.85;2.97;;;;;;;-2.69;100.00;103234.19;4751871;30;20086;-80
2022/01/21 04:02:10;;;;;;;18.35;3.22;;;;;;;-2.74;100.00;103239.94;4751626;30;20425;-80
2022/01/21 04:04:35;;;;;;;11.85;2.55;;;;;;;-2.18;100.00;103311.59;4751576;30;20493;-80
2022/01/21 04:07:31;;;;;;;18.40;2.92;;;;;;;-1.48;100.00;103442.81;4754135;30;20517;-81
2022/01/21 04:10:10;;;;;;;9.32;2.40;;;;;;;-1.98;100.00;103345.09;4755156;30;20031;-80
2022/01/21 04:16:18;;;;;;;14.10;3.92;;;;;;;-1.48;100.00;103437.75;4755309;30;20090;-80
2022/01/21 04:26:14;;;;;;;14.32;2.25;;;;;;;-1.49;100.00;103436.03;4713268;30;20063;-80
2022/01/21 04:32:34;;;;;;;21.48;3.00;;;;;;;-1.52;100.00;103431.75;4754915;30;20051;-80
2022/01/21 05:33:47;;;;;;;14.40;3.00;;;;;;;-1.63;100.00;103424.66;5295849;24;20039;-80
2022/01/21 05:36:12;;;;;;;15.80;2.70;;;;;;;-1.66;100.00;103433.03;4789662;30;20489;-80
2022/01/21 05:38:38;;;;;;;11.65;3.40;;;;;;;-1.68;100.00;103424.50;4789353;30;20039;-80
2022/01/21 05:50:45;;;;;;;24.95;3.65;;;;;;;-1.71;100.00;103446.38;4789663;30;20085;-80
2022/01/21 05:59:53;;;;;;;15.50;3.50;;;;;;;-2.22;100.00;103356.22;4789198;30;20046;-80
2022/01/21 06:02:31;;;;;;;8.40;2.47;;;;;;;-2.89;100.00;103242.84;4788174;30;20031;-80
2022/01/21 06:05:09;;;;;;;16.55;2.92;;;;;;;-2.17;100.00;103377.47;4789125;30;20179;-80
2022/01/21 06:07:47;;;;;;;12.75;2.72;;;;;;;-1.79;100.00;103433.47;4789055;30;20111;-80
2022/01/21 06:10:12;;;;;;;11.55;2.20;;;;;;;-2.50;100.00;103316.56;4788656;30;20110;-80
2022/01/21 06:12:43;;;;;;;11.45;3.00;;;;;;;-2.95;100.00;103232.53;4795094;24;20158;-80
2022/01/21 06:15:15;;;;;;;13.90;2.80;;;;;;;-2.46;100.00;103325.09;4789149;30;20039;-80
2022/01/21 06:17:43;;;;;;;;;;;;;;;-1.72;100.00;103445.50;4789341;30;20024;-80
2022/01/21 06:20:11;;;;;;;16.20;2.75;;;;;;;-1.64;100.00;103463.47;4788751;30;19927;-81
2022/01/21 06:22:39;;;;;;;14.38;2.80;;;;;;;-1.64;100.00;103459.28;4788641;30;20054;-80
2022/01/21 06:25:08;;;;;;;10.52;2.95;;;;;;;-1.65;100.00;103467.69;4788641;30;20034;-80
2022/01/21 06:27:36;;;;;;;17.85;2.95;;;;;;;-1.59;100.00;103467.00;4788449;30;20088;-79
2022/01/21 06:30:01;;;;;;;11.30;3.08;;;;;;;-1.77;100.00;103417.53;4788201;29;20492;-81
2022/01/21 06:35:03;;;;;;;16.15;3.08;;;;;;;-1.23;100.00;103472.28;4844398;24;20059;-81
2022/01/21 06:37:28;;;;;;;14.07;3.28;;;;;;;-1.24;100.00;103460.41;4788365;29;20048;-81
2022/01/21 06:39:53;;;;;;;19.52;4.13;;;;;;;-1.40;100.00;103407.56;4788662;30;20476;-73
2022/01/21 06:42:23;;;;;;;15.20;3.45;;;;;;;-1.04;100.00;103453.34;4788791;30;20041;-79
2022/01/21 06:44:49;;;;;;;17.33;3.80;;;;;;;-0.84;100.00;103475.03;4788635;30;20539;-79
2022/01/21 06:47:14;;;;;;;14.80;3.63;;;;;;;-0.77;100.00;103488.75;4788526;30;20110;-78
2022/01/21 06:49:39;;;;;;;16.38;3.85;;;;;;;-0.68;100.00;103489.00;4788300;30;20078;-79
2022/01/21 06:52:10;;;;;;;18.23;4.78;;;;;;;-1.77;100.00;103302.66;4982964;24;20085;-79
2022/01/21 06:58:28;;;;;;;20.00;4.13;;;;;;;-0.62;100.00;103469.69;4788372;29;20047;-78
2022/01/21 07:01:12;;;;;;;12.63;4.63;;;;;;;-0.78;100.00;103428.69;4787045;30;20490;-79
2022/01/21 07:03:45;;;;;;;16.75;5.22;;;;;;;-0.78;100.00;103409.25;4772008;30;20050;-79
2022/01/21 07:07:01;;;;;;;;;;;;;;;;;;;;;
2022/01/21 07:10:20;;;;;;;21.38;5.60;;;;;;;-1.38;100.00;103300.34;4755988;30;20065;-79
2022/01/21 07:12:46;;;;;;;21.90;6.63;;;;;;;-0.14;100.00;103503.91;4867040;24;20444;-79
2022/01/21 07:15:16;;;;;;;18.50;6.15;;;;;;;-0.07;100.00;103508.31;4787858;30;20042;-79
2022/01/21 07:28:48;;;;;;;19.17;7.28;;;;;;;-0.23;100.00;103471.53;4794646;29;20326;-79
2022/01/21 07:31:19;;;;;;;20.77;8.30;;;;;;;-0.59;100.00;103418.16;4787438;29;20039;-77
2022/01/21 07:43:31;;;;;;;21.52;8.48;;;;;;;-0.22;100.00;103424.13;4787762;29;20046;-77
2022/01/21 07:46:40;;;;;;;18.52;8.23;;;;;;;0.37;100.00;103511.00;4788669;30;20043;-80
2022/01/21 07:57:53;;;;;;;18.00;7.68;;;;;;;-0.10;100.00;103449.81;4787564;30;20058;-76
2022/01/21 08:00:19;;;;;;;18.13;9.05;;;;;;;-0.18;100.00;103408.16;4794364;29;20039;-80
2022/01/21 08:03:07;;;;;;;18.30;8.18;;;;;;;-0.64;100.00;103331.78;4796730;29;20062;-79
2022/01/21 08:34:14;;;;;;;18.67;6.07;;;;;;;0.30;100.00;103486.31;3927005;27;20062;-81
2022/01/21 08:36:39;;;;;;;17.17;6.72;;;;;;;0.37;100.00;103508.47;4805755;29;20122;-83
2022/01/21 08:39:08;;;;;;;15.77;6.93;;;;;;;0.11;100.00;103460.47;4805176;29;20039;-82
2022/01/21 08:41:34;;;;;;;16.52;7.15;;;;;;;0.24;100.00;103484.47;4805054;29;20027;-80
2022/01/21 08:43:59;;;;;;;16.58;6.88;;;;;;;0.09;100.00;103456.16;4805283;29;20109;-82
2022/01/21 08:46:27;;;;;;;16.58;6.70;;;;;;;0.41;100.00;103503.50;4805461;29;20031;-81
2022/01/21 08:48:52;;;;;;;13.70;6.47;;;;;;;0.27;100.00;103477.75;4805306;29;20027;-81
2022/01/21 08:51:36;;;;;;;18.75;6.85;;;;;;;0.38;100.00;103495.78;4805333;29;20031;-81
2022/01/21 08:54:04;;;;;;;13.88;6.70;;;;;;;0.43;100.00;103509.47;4808425;29;20038;-80
2022/01/21 08:56:29;;;;;;;14.50;5.75;;;;;;;0.18;100.00;103476.69;4808813;29;20396;-81
2022/01/21 08:58:54;;;;;;;14.32;6.80;;;;;;;0.43;100.00;103514.56;4808877;29;20031;-80
2022/01/21 09:01:23;;;;;;;17.92;6.03;;;;;;;0.44;100.00;103515.41;4808575;29;20062;-81
2022/01/21 09:11:43;;;;;;;17.42;6.38;;;;;;;0.07;100.00;103418.03;4983102;24;20063;-78
2022/01/21 09:14:42;;;;;;;14.02;5.53;;;;;;;-0.39;100.00;103333.22;4866410;24;20067;-78
2022/01/21 09:17:47;;;;;;;13.93;4.97;;;;;;;0.64;100.00;103481.09;4887647;24;20551;-77
2022/01/21 09:20:18;;;;;;;14.73;5.90;;;;;;;-0.44;100.00;103288.25;4808502;29;20038;-80
2022/01/21 09:23:49;;;;;;;;;;;;;;;;;;;;;
2022/01/21 09:26:34;;;;;;;16.73;5.90;;;;;;;0.68;100.00;103443.88;4807725;29;20373;-78
2022/01/21 09:29:18;;;;;;;12.57;5.47;;;;;;;0.47;100.00;103398.53;4781057;29;20122;-79
2022/01/21 09:31:53;;;;;;;13.43;5.38;;;;;;;0.93;100.00;103470.66;4807554;29;20034;-79
2022/01/21 09:34:19;;;;;;;17.60;6.25;;;;;;;-0.05;100.00;103300.91;4807877;29;20034;-80
2022/01/21 09:36:54;;;;;;;16.70;5.90;;;;;;;0.94;100.00;103463.06;4807726;29;20023;-78
2022/01/21 09:39:20;;;;;;;17.30;6.47;;;;;;;1.16;100.00;103492.31;4807799;29;20046;-80
2022/01/21 09:41:48;;;;;;;14.60;5.65;;;;;;;1.21;100.00;103502.59;4807421;29;20113;-81
2022/01/21 09:44:15;;;;;;;13.90;5.85;;;;;;;1.14;100.00;103477.00;4808096;29;20392;-80
2022/01/21 09:46:44;;;;;;;16.02;5.45;;;;;;;1.31;100.00;103499.38;4807294;29;20038;-80
2022/01/21 09:52:09;;;;;;;16.10;5.65;;;;;;;1.40;100.00;103505.50;4751792;30;20609;-78
2022/01/21 09:54:37;;;;;;;16.40;5.80;;;;;;;1.51;100.00;103509.91;4751563;30;20102;-78
2022/01/21 09:57:05;;;;;;;16.75;5.95;;;;;;;1.57;100.00;103517.66;4751585;30;20541;-80
2022/01/21 09:59:36;;;;;;;18.23;5.35;;;;;;;1.55;100.00;103507.44;4751616;30;20047;-80
2022/01/21 10:02:08;;;;;;;14.98;5.57;;;;;;;1.69;100.00;103520.44;4751285;30;20095;-79
2022/01/21 10:04:37;;;;;;;18.20;5.88;;;;;;;1.73;100.00;103520.50;4735937;30;20041;-80
2022/01/21 10:07:03;;;;;;;17.55;5.10;;;;;;;1.77;100.00;103521.41;4751394;30;20036;-81
2022/01/21 10:09:29;;;;;;;16.80;5.28;;;;;;;1.70;100.00;103505.16;4751366;30;20184;-81
2022/01/21 10:11:57;;;;;;;15.60;4.82;;;;;;;1.73;100.00;103507.75;4751375;30;20119;-79
2022/01/21 10:17:00;;;;;;;13.00;4.30;;;;;;;1.52;99.89;103460.69;4899294;24;20067;-78
2022/01/21 10:19:27;;;;;;;14.80;3.83;;;;;;;1.87;99.61;103494.38;4788374;30;20090;-79
2022/01/21 10:22:05;;;;;;;17.35;4.80;;;;;;;2.18;99.52;103547.56;4789040;30;20110;-78
2022/01/21 10:24:33;;;;;;;15.15;4.28;;;;;;;2.26;99.13;103535.81;4788799;30;20031;-79
2022/01/21 10:26:59;;;;;;;13.63;3.75;;;;;;;2.53;99.06;103549.75;4787314;30;20046;-81
2022/01/21 10:29:35;;;;;;;14.88;3.65;;;;;;;2.71;98.42;103534.72;4788946;30;20181;-79
2022/01/21 10:32:01;;;;;;;16.20;4.07;;;;;;;3.02;96.37;103541.03;4787485;29;20106;-78
2022/01/21 10:34:30;;;;;;;12.07;3.20;;;;;;;3.37;95.65;103548.25;4788707;30;20032;-79
2022/01/21 10:37:06;;;;;;;18.17;3.25;;;;;;;3.58;95.06;103540.81;4788385;30;20081;-79
2022/01/21 10:39:33;;;;;;;14.32;3.90;;;;;;;3.82;93.50;103549.53;4788768;30;20031;-80
2022/01/21 10:42:01;;;;;;;15.35;3.70;;;;;;;3.91;92.24;103540.25;4788930;30;20032;-79
2022/01/21 10:44:28;;;;;;;15.90;4.05;;;;;;;4.12;91.96;103551.47;4806806;29;20076;-80
2022/01/21 10:47:11;;;;;;;12.63;3.85;;;;;;;4.22;91.69;103541.31;4806704;29;20035;-79
2022/01/21 10:49:40;;;;;;;14.90;2.88;;;;;;;4.42;91.34;103532.94;4806238;29;20487;-81
2022/01/21 10:52:09;;;;;;;16.00;3.40;;;;;;;4.39;89.86;103510.75;4806726;29;20031;-80
2022/01/21 10:54:42;;;;;;;14.38;2.75;;;;;;;4.44;89.01;103513.34;4806465;29;20060;-80
2022/01/21 10:57:15;;;;;;;12.68;3.25;;;;;;;4.38;90.04;103503.91;4806705;29;20106;-80
2022/01/21 10:59:54;;;;;;;16.08;3.65;;;;;;;4.40;90.34;103519.28;4790134;29;20038;-81
2022/01/21 11:02:54;;;;;;;15.48;3.30;;;;;;;3.96;90.67;103461.03;4805175;29;20034;-78
2022/01/21 11:05:31;;;;;;;10.82;2.88;;;;;;;4.16;91.35;103476.50;4790317;29;20087;-80
2022/01/21 11:08:08;;;;;;;14.25;3.72;;;;;;;4.15;91.28;103444.97;4806529;29;20051;-82
2022/01/21 11:10:36;;;;;;;11.85;2.92;;;;;;;4.63;91.15;103492.13;4806189;29;20070;-83
2022/01/21 11:13:11;;;;;;;13.43;2.88;;;;;;;4.91;91.03;103495.63;4806660;29;20560;-79
2022/01/21 11:16:05;;;;;;;15.00;2.92;;;;;;;5.11;90.86;103504.25;4806106;29;20472;-80
2022/01/21 11:29:29;;;;;;;9.43;3.10;;;;;;;4.99;91.14;103486.25;4806145;29;20061;-78
2022/01/21 11:38:58;;;;;;;16.35;3.15;;;;;;;4.41;91.46;103434.84;4806026;29;20083;-79
2022/01/21 12:13:00;;;;;;;12.38;3.90;;;;;;;5.34;89.25;103458.16;4749878;30;20122;-78
2022/01/21 12:42:31;;;;;;;11.30;2.10;;;;;;;5.84;86.92;103431.66;4831562;24;20116;-78
2022/01/21 12:45:16;;;;;;;10.45;2.33;;;;;;;5.98;87.88;103449.63;4790729;30;20044;-80
2022/01/21 12:47:47;;;;;;;13.25;3.00;;;;;;;5.98;86.77;103445.34;4790348;30;20552;-80
2022/01/21 12:50:25;;;;;;;14.48;2.88;;;;;;;6.03;87.17;103442.78;4773972;30;20070;-81
2022/01/21 13:36:10;;;;;;;11.40;1.85;;;;;;;6.35;86.45;103399.06;4772050;30;20081;-80
2022/01/21 13:46:31;;;;;;;13.73;2.53;;;;;;;5.93;86.40;103370.13;5686114;24;20473;-79
2022/01/21 13:48:57;;;;;;;16.52;2.95;;;;;;;5.68;86.45;103365.88;4789702;30;20036;-82
2022/01/21 13:51:22;;;;;;;12.18;2.20;;;;;;;5.69;86.80;103382.97;4789542;30;20065;-79
2022/01/21 13:53:48;;;;;;;13.15;2.13;;;;;;;5.50;87.59;103379.56;4789281;30;20059;-80
2022/01/21 13:56:15;;;;;;;14.13;2.33;;;;;;;5.47;89.87;103416.31;4787761;29;20031;-79
2022/01/21 13:58:41;;;;;;;12.85;2.38;;;;;;;5.11;91.17;103395.78;4789593;30;20431;-80
2022/01/21 14:01:13;;;;;;;14.45;3.10;;;;;;;5.12;93.15;103415.47;4789643;30;20110;-81
2022/01/21 14:03:40;;;;;;;13.07;2.95;;;;;;;5.03;93.55;103411.19;4773049;30;20396;-79
2022/01/21 14:17:57;;;;;;;13.10;2.63;;;;;;;5.02;94.36;103408.63;5447890;24;20055;-81
2022/01/21 14:28:09;;;;;;;12.88;2.30;;;;;;;4.16;92.56;103238.69;4799725;24;20139;-78
2022/01/21 14:30:48;;;;;;;17.45;2.95;;;;;;;5.21;92.19;103394.97;4773196;30;20088;-79
2022/01/21 14:33:55;;;;;;;12.80;2.42;;;;;;;4.62;92.65;103288.22;4788675;30;20032;-78
2022/01/21 14:36:24;;;;;;;16.58;3.28;;;;;;;4.53;91.64;103267.75;4788203;30;20110;-78
2022/01/21 14:39:10;;;;;;;9.57;2.88;;;;;;;5.33;91.90;103396.69;4786855;30;20050;-78
2022/01/21 14:41:49;;;;;;;13.52;3.10;;;;;;;5.27;91.03;103391.53;4788589;30;20043;-79
2022/01/21 14:50:24;;;;;;;17.80;3.58;;;;;;;5.28;91.30;103372.75;4983875;24;20513;-80
2022/01/21 15:00:39;;;;;;;14.48;3.60;;;;;;;5.28;91.53;103383.00;5394626;24;20432;-79
2022/01/21 15:03:04;;;;;;;15.50;3.92;;;;;;;5.32;90.81;103385.56;4786876;30;20067;-81
2022/01/21 15:05:30;;;;;;;13.27;3.30;;;;;;;5.18;90.92;103374.47;4788055;30;20109;-79
2022/01/21 15:07:58;;;;;;;14.07;2.85;;;;;;;5.23;91.18;103395.81;4771830;30;20035;-80
2022/01/21 15:10:44;;;;;;;13.15;2.85;;;;;;;5.24;92.50;103397.53;4806427;29;20063;-75
2022/01/21 15:16:09;;;;;;;10.57;2.50;;;;;;;5.06;92.35;103397.50;4806268;29;20050;-78
2022/01/21 15:18:37;;;;;;;13.68;3.20;;;;;;;4.92;92.54;103381.25;4805798;29;20171;-79
2022/01/21 15:21:03;;;;;;;12.00;2.55;;;;;;;4.99;92.92;103401.75;4806063;29;20031;-79
2022/01/21 15:23:28;;;;;;;9.93;2.75;;;;;;;4.94;93.18;103400.06;4805760;29;20472;-78
2022/01/21 15:25:59;;;;;;;17.52;2.72;;;;;;;4.97;93.31;103387.25;4805800;29;20037;-79
2022/01/21 15:28:25;;;;;;;14.50;3.10;;;;;;;4.94;93.58;103383.00;4806175;29;20560;-79
2022/01/21 15:30:53;;;;;;;13.70;3.13;;;;;;;4.84;94.19;103368.47;4805638;29;20035;-79
2022/01/21 15:33:19;;;;;;;11.82;3.35;;;;;;;4.97;94.16;103390.66;4805364;29;20113;-77
2022/01/21 15:35:44;;;;;;;13.38;2.92;;;;;;;4.98;94.31;103384.69;4805585;29;20125;-78
2022/01/21 15:38:10;;;;;;;11.52;3.33;;;;;;;4.97;94.61;103379.56;4805717;29;20027;-77
2022/01/21 15:40:35;;;;;;;9.93;3.17;;;;;;;4.86;94.68;103367.59;4805503;29;20030;-78
2022/01/21 15:43:01;;;;;;;13.10;4.07;;;;;;;4.76;95.03;103355.66;4805864;29;20548;-80
2022/01/21 15:45:26;;;;;;;11.15;3.33;;;;;;;4.86;95.21;103377.84;4805703;29;20037;-79
2022/01/21 15:50:32;;;;;;;14.93;4.40;;;;;;;3.74;95.76;103199.38;5145750;24;20056;-78
2022/01/21 15:53:29;;;;;;;16.08;4.50;;;;;;;4.82;95.61;103385.53;4751993;30;20109;-76
2022/01/21 15:56:25;;;;;;;13.60;4.00;;;;;;;4.79;95.60;103382.94;4752012;30;20036;-78
2022/01/21 15:59:03;;;;;;;18.27;4.50;;;;;;;4.19;95.46;103292.41;4736168;30;20036;-79
2022/01/21 16:08:12;;;;;;;14.63;3.92;;;;;;;4.68;95.63;103389.75;4755573;30;20385;-78
2022/01/21 16:10:41;;;;;;;21.08;4.60;;;;;;;4.32;95.60;103337.59;4755205;30;20170;-79
2022/01/21 16:13:15;;;;;;;17.92;4.38;;;;;;;4.66;95.44;103401.69;4735200;30;20084;-78
2022/01/21 16:19:47;;;;;;;17.52;4.38;;;;;;;3.49;95.61;103193.31;4666372;30;20081;-79
2022/01/21 16:22:24;;;;;;;19.55;4.68;;;;;;;4.28;95.87;103326.53;4636925;30;20062;-78
2022/01/21 16:24:58;;;;;;;16.10;4.22;;;;;;;4.65;95.85;103382.94;4665892;30;20038;-78
2022/01/21 16:27:23;;;;;;;15.25;5.05;;;;;;;4.44;95.75;103344.50;4666108;30;20066;-79
2022/01/21 16:29:49;;;;;;;15.48;4.32;;;;;;;4.57;95.64;103371.81;4666102;30;20512;-79
2022/01/21 16:32:15;;;;;;;18.08;4.22;;;;;;;4.53;95.73;103365.84;4666253;30;20042;-80
2022/01/21 16:34:40;;;;;;;17.05;5.20;;;;;;;4.56;95.81;103373.53;4666190;30;20509;-78
2022/01/21 16:37:06;;;;;;;19.92;4.10;;;;;;;4.46;95.82;103353.03;4666134;30;20056;-79
2022/01/21 16:39:32;;;;;;;15.05;3.83;;;;;;;4.62;95.73;103377.78;4665736;30;20042;-78
2022/01/21 16:41:59;;;;;;;13.35;4.22;;;;;;;4.60;95.83;103379.50;4665577;30;20050;-78
2022/01/21 16:44:29;;;;;;;19.55;4.88;;;;;;;4.49;95.69;103359.00;4676344;30;20053;-77
2022/01/21 16:46:54;;;;;;;25.02;5.22;;;;;;;4.48;95.65;103357.28;4681160;30;20049;-76
2022/01/21 16:49:20;;;;;;;14.95;4.00;;;;;;;4.55;95.43;103365.84;4682445;30;20053;-77
2022/01/21 16:51:45;;;;;;;19.55;4.72;;;;;;;4.60;95.73;103382.03;4677912;30;20068;-79
2022/01/21 16:54:11;;;;;;;15.95;4.00;;;;;;;4.60;95.29;103379.50;4717725;30;20040;-78
2022/01/21 16:56:40;;;;;;;19.42;4.22;;;;;;;4.59;95.26;103375.22;4754666;30;20119;-77
2022/01/21 16:59:06;;;;;;;17.17;4.10;;;;;;;4.47;94.90;103360.69;4754478;30;20046;-76
2022/01/21 17:01:31;;;;;;;21.05;3.90;;;;;;;4.49;95.11;103361.53;4754408;30;20048;-78
2022/01/21 17:03:57;;;;;;;15.85;4.00;;;;;;;4.42;94.91;103359.81;4754897;30;20508;-80
2022/01/21 17:06:22;;;;;;;13.90;3.95;;;;;;;4.39;94.99;103348.72;4754615;30;20036;-81
2022/01/21 17:08:48;;;;;;;15.65;4.60;;;;;;;4.55;94.95;103376.94;4754362;30;20118;-80
2022/01/21 17:11:13;;;;;;;16.50;4.10;;;;;;;4.56;94.49;103373.53;4754216;30;20031;-80
2022/01/21 17:13:39;;;;;;;16.10;4.30;;;;;;;4.57;94.05;103374.38;4753886;30;20066;-80
2022/01/21 17:19:11;;;;;;;19.17;5.72;;;;;;;4.51;93.91;103370.06;5541004;24;20021;-79
2022/01/21 17:21:37;;;;;;;17.75;4.32;;;;;;;4.51;93.51;103370.06;4753054;30;20062;-79
2022/01/21 17:24:03;;;;;;;14.82;4.50;;;;;;;4.49;93.82;103376.03;4753906;30;20118;-80
2022/01/21 17:26:28;;;;;;;22.75;4.45;;;;;;;4.34;93.50;103347.88;4754118;30;20029;-80
2022/01/21 17:28:56;;;;;;;16.95;3.80;;;;;;;4.37;93.40;103361.50;4753977;30;20174;-81
2022/01/21 17:31:22;;;;;;;13.90;4.63;;;;;;;4.49;93.71;103381.16;4753875;30;20040;-80
2022/01/21 17:33:49;;;;;;;19.02;5.00;;;;;;;4.44;93.35;103388.84;4754179;30;20043;-81
2022/01/21 17:36:14;;;;;;;20.05;4.88;;;;;;;4.39;93.70;103377.72;4753859;30;20037;-81
2022/01/21 17:38:40;;;;;;;18.48;4.53;;;;;;;4.45;93.33;103390.53;4753744;30;20047;-80
2022/01/21 17:41:05;;;;;;;15.45;4.70;;;;;;;4.27;93.08;103359.78;4753658;30;20032;-81
2022/01/21 17:43:30;;;;;;;20.23;5.55;;;;;;;4.28;93.13;103358.94;4753869;30;20036;-82
2022/01/21 17:45:56;;;;;;;19.92;5.55;;;;;;;4.44;93.53;103388.00;4753861;30;20036;-81
2022/01/21 17:48:21;;;;;;;20.35;5.57;;;;;;;4.24;92.82;103363.19;4753923;30;20115;-78
2022/01/21 17:50:47;;;;;;;14.00;4.55;;;;;;;4.34;92.83;103378.56;4753903;30;20393;-76
2022/01/21 17:53:19;;;;;;;16.30;5.55;;;;;;;4.31;92.59;103372.56;4753614;30;20036;-78
2022/01/21 17:55:44;;;;;;;18.55;5.40;;;;;;;4.32;92.45;103375.97;4753499;30;20078;-78
2022/01/21 17:58:24;;;;;;;18.50;5.28;;;;;;;4.34;92.42;103373.44;4753306;30;20063;-80
2022/01/21 18:00:50;;;;;;;18.17;5.65;;;;;;;4.40;92.64;103387.09;4753733;30;20031;-78
2022/01/21 18:03:15;;;;;;;15.35;4.88;;;;;;;4.32;92.61;103376.84;4753711;30;20044;-80
2022/01/21 18:05:41;;;;;;;16.80;4.70;;;;;;;4.40;92.38;103394.78;4753405;30;20090;-80
2022/01/21 18:08:07;;;;;;;22.02;6.00;;;;;;;4.40;92.37;103397.34;4753487;30;20473;-79
2022/01/21 18:13:20;;;;;;;21.88;5.45;;;;;;;4.40;92.28;103392.22;4753506;30;20102;-79
2022/01/21 18:32:47;;;;;;;16.77;6.32;;;;;;;4.27;91.69;103370.84;3006848;24;20070;-80
2022/01/21 18:35:13;;;;;;;16.73;5.35;;;;;;;4.38;91.88;103373.44;4788515;30;20051;-80
2022/01/21 18:37:39;;;;;;;19.20;6.43;;;;;;;4.28;91.83;103362.34;4788590;30;20043;-80
2022/01/21 18:40:05;;;;;;;25.10;6.40;;;;;;;4.09;91.88;103334.97;4788158;30;20035;-80
2022/01/21 18:42:33;;;;;;;20.77;6.05;;;;;;;4.12;91.79;103341.78;4788596;30;20032;-79
2022/01/21 18:45:06;;;;;;;17.98;6.18;;;;;;;4.19;91.84;103367.41;4788634;30;20023;-80
2022/01/21 18:47:39;;;;;;;19.73;6.15;;;;;;;4.09;91.91;103350.31;4788500;30;20050;-80
2022/01/21 18:53:08;;;;;;;16.48;4.97;;;;;;;3.24;91.56;103206.78;4782013;27;20051;-79
2022/01/21 18:56:13;;;;;;;15.38;5.07;;;;;;;4.38;91.83;103393.06;4787501;29;20039;-80
2022/01/21 18:58:51;;;;;;;17.55;4.80;;;;;;;3.22;91.45;103203.38;4771869;30;20089;-78
2022/01/21 19:01:57;;;;;;;;;;;;;;;;;;;;;
2022/01/21 19:04:48;;;;;;;15.68;5.32;;;;;;;4.34;91.77;103388.81;4787989;30;20027;-79
2022/01/21 19:27:38;;;;;;;14.90;5.05;;;;;;;4.29;91.12;103396.44;5282754;24;20051;-78
2022/01/21 19:30:33;;;;;;;19.63;5.22;;;;;;;3.51;90.90;103269.94;4769964;30;20044;-75
2022/01/21 19:32:58;;;;;;;20.02;5.22;;;;;;;4.18;91.03;103391.28;4768756;30;20451;-77
2022/01/21 19:35:49;;;;;;;18.88;5.57;;;;;;;3.71;91.09;103320.31;4769993;30;20031;-77
2022/01/21 19:38:35;;;;;;;17.63;5.53;;;;;;;3.15;91.19;103220.38;4769974;30;20028;-78
2022/01/21 19:41:04;;;;;;;17.98;5.32;;;;;;;3.78;91.20;103328.88;4769794;30;20031;-79
2022/01/21 20:02:39;;;;;;;14.00;5.03;;;;;;;4.24;90.97;103431.38;1049206;24;20332;-78
2022/01/21 20:10:18;;;;;;;16.83;5.25;;;;;;;4.19;90.67;103431.34;4787324;30;20405;-81
2022/01/21 20:12:49;;;;;;;19.38;5.07;;;;;;;4.02;90.87;103403.13;4787115;30;20038;-80
2022/01/21 20:15:33;;;;;;;;;;;;;;;4.20;91.17;103425.38;4787718;30;20073;-80
2022/01/21 20:18:01;;;;;;;16.83;5.10;;;;;;;4.17;91.20;103435.59;4787287;30;19921;-79
2022/01/21 21:13:40;;;;;;;17.80;6.63;;;;;;;4.14;91.36;103415.13;4772481;30;20058;-78
2022/01/21 21:16:11;;;;;;;18.83;6.38;;;;;;;4.12;90.92;103410.84;4772225;30;20036;-77
2022/01/21 21:24:08;;;;;;;21.27;6.35;;;;;;;4.08;90.81;103394.63;4771816;30;20562;-79
2022/01/21 21:26:42;;;;;;;15.38;6.00;;;;;;;3.91;91.17;103366.41;4772074;30;20027;-78
2022/01/21 21:32:09;;;;;;;18.38;6.70;;;;;;;4.08;90.94;103397.19;4771944;30;20036;-78
2022/01/21 22:13:06;;;;;;;14.20;6.47;;;;;;;3.96;91.90;103376.69;4751530;30;20528;-77
2022/01/21 22:18:55;;;;;;;17.85;8.27;;;;;;;3.89;91.52;103374.94;4837923;24;20529;-77
2022/01/21 22:51:32;;;;;;;19.50;7.72;;;;;;;2.83;91.38;103213.34;4750973;30;20070;-76
2022/01/21 23:03:26;;;;;;;20.52;8.40;;;;;;;3.93;92.50;103408.19;4680796;30;20041;-77
2022/01/21 23:06:09;;;;;;;16.83;7.47;;;;;;;2.91;92.42;103238.06;4682315;30;20059;-77
2022/01/21 23:08:39;;;;;;;22.30;7.75;;;;;;;2.95;92.72;103248.31;4680897;30;20130;-74
2022/01/21 23:11:08;;;;;;;16.88;7.80;;;;;;;3.91;92.80;103406.47;4680348;30;20117;-74
2022/01/21 23:13:35;;;;;;;21.15;9.70;;;;;;;3.74;92.39;103373.16;4680786;30;20070;-74
2022/01/21 23:16:01;;;;;;;17.80;7.72;;;;;;;3.78;92.65;103381.69;4680443;30;20034;-75
2022/01/21 23:18:53;;;;;;;14.05;7.40;;;;;;;3.79;92.34;103381.69;4680618;30;20132;-75
2022/01/21 23:21:21;;;;;;;17.08;7.32;;;;;;;3.90;92.60;103405.59;4680582;30;20042;-75
2022/01/21 23:23:55;;;;;;;15.63;6.93;;;;;;;3.81;92.30;103387.66;4680583;30;20049;-75
2022/01/21 23:26:21;;;;;;;17.33;7.28;;;;;;;3.79;92.56;103378.28;4709218;30;20056;-75
2022/01/21 23:29:00;;;;;;;19.58;7.68;;;;;;;3.93;92.05;103408.19;4714956;30;20045;-76